Iowa Falls, IA

3:37 PM CDT on July 20, 2019 (GMT -0500)
Henry Home | | Change Station

Elev 1129 ft 42.53 °N, 93.26 °W | Updated 3 seconds ago

Rain
Rain
77.9 °F
Feels Like 77 °F
N
2.68
Wind Variable Wind from NE
Gusts 4.9 mph

Today
High -- | Low -- °F
--% Chance of Precip.
Yesterday
High -- | Low -- °F
Precip. -- in
Pressure 29.91 in
Visibility 7.0 miles
Clouds Few 600 ft
Few 3000 ft
Mostly Cloudy 9500 ft
Heat Index 77 °F
Dew Point 30 °F
Humidity 17%
Rainfall 0.00 in
Snow Depth Not available.
5:53 AM 8:44 PM
Waning Gibbous, 86% visible
METAR KCAV 202015Z AUTO 08006G13KT 7SM FEW006 FEW030 BKN095 23/20 A2991 RMK AO2 PWINO
Pressure 29.91 in
Visibility 7.0 miles
Clouds Few 600 ft
Few 3000 ft
Mostly Cloudy 9500 ft
Heat Index 77 °F
Dew Point 30 °F
Humidity 17%
Rainfall 0.00 in
Snow Depth Not available.
5:53 AM 8:44 PM
Waning Gibbous, 86% visible
METAR KCAV 202015Z AUTO 08006G13KT 7SM FEW006 FEW030 BKN095 23/20 A2991 RMK AO2 PWINO

Get Severe Weather Alerts

Thanks for signing up!

Be on the lookout for a verification email in your inbox.

You'll start receiving the daily forecast at 6 AM.

×

10-Day Weather Forecast

Almanac

Astronomy

Jul. 20, 2019 Rise Set
Actual Time
Civil Twilight
Nautical Twilight
Astronomical Twilight
Moon
Length of Visible Light
Length of Day
Tomorrow will be .
, % of the Moon is Illuminated

Today's Extremes

State Highs State Lows

Community

WunderPhotos

Category 6

Welcome to Category 6. This is the collective home for Weather Underground's featured writeups by Dr. Jeff Masters (right), Bob Henson (left), Chris Burt, and other regular contributors.

Nearby

Air Quality

  Air Quality AQ Index Pollutant
Not available.

Snow Depth

Station Depth Elevation

Earthquake Activity

City Distance Mag. Time & Date
Minimum magnitude displayed is 2.5.

Coastal Water Temperatures

Place Temperature

Stations

Nearby Weather Stations

Station Location Temp. Windchill Dew Point Humidity Wind Precip. Elev Updated Type
                   

Watches & Warnings

There are currently no watches in effect.